Time;durP1;ratioP1;P1;durP2;ratioP2;P2;SDS_P1;SDS_P2;PMS_P1;PMS_P2;Temp;Humidity;BMP_temperature;BMP_pressure;BME280_temperature;BME280_humidity;BME280_pressure;Samples;Min_cycle;Max_cycle;Signal;HPM_P1;HPM_P2
2021/10/21 00:01:59;;;;;;;17.50;15.50;;;;;;;11.82;71.40;98084.83;112845;1192;60233;-82
2021/10/21 00:04:28;;;;;;;16.30;14.10;;;;;;;11.76;71.72;98089.70;112846;1193;60254;-82
2021/10/21 00:06:55;;;;;;;15.70;14.00;;;;;;;11.64;72.12;98089.95;112731;1191;64963;-83
2021/10/21 00:09:21;;;;;;;21.60;14.70;;;;;;;11.56;72.60;98090.83;112865;1192;60172;-82
2021/10/21 00:11:48;;;;;;;19.10;14.90;;;;;;;11.48;73.07;98095.96;112859;1192;60163;-82
2021/10/21 00:14:14;;;;;;;20.10;13.90;;;;;;;11.42;73.48;98092.00;112876;1192;60598;-82
2021/10/21 00:16:41;;;;;;;18.00;14.20;;;;;;;11.40;73.83;98089.36;112615;1192;60265;-82
2021/10/21 00:19:08;;;;;;;20.50;16.40;;;;;;;11.37;74.21;98092.05;112919;1191;63704;-82
2021/10/21 00:21:34;;;;;;;18.50;15.80;;;;;;;11.32;74.45;98093.09;112650;1192;60130;-82
2021/10/21 00:24:01;;;;;;;23.00;17.70;;;;;;;11.27;74.59;98092.26;112819;1193;63679;-82
2021/10/21 00:26:27;;;;;;;21.50;17.70;;;;;;;11.22;74.50;98090.66;112890;1192;61709;-82
2021/10/21 00:28:54;;;;;;;18.70;16.10;;;;;;;11.19;74.69;98087.57;112930;1193;60156;-82
2021/10/21 00:31:21;;;;;;;21.10;17.30;;;;;;;11.18;74.76;98085.15;112801;1191;59068;-82
2021/10/21 00:33:47;;;;;;;23.40;16.00;;;;;;;11.17;74.74;98082.50;112859;1193;60248;-82
2021/10/21 00:36:14;;;;;;;19.20;15.90;;;;;;;11.19;74.73;98073.85;112781;1191;60229;-82
2021/10/21 00:38:40;;;;;;;21.00;15.70;;;;;;;11.22;74.68;98072.58;112853;1193;60258;-82
2021/10/21 00:41:07;;;;;;;20.50;16.90;;;;;;;11.22;74.70;98069.71;112651;1192;60131;-83
2021/10/21 00:43:36;;;;;;;22.90;17.80;;;;;;;11.18;74.82;98063.09;112673;1193;63542;-82
2021/10/21 00:46:05;;;;;;;23.90;17.40;;;;;;;11.14;74.90;98057.92;112706;1193;61096;-82
2021/10/21 00:48:33;;;;;;;24.00;18.70;;;;;;;11.10;75.00;98052.76;112743;1193;64016;-83
2021/10/21 00:50:59;;;;;;;26.60;19.60;;;;;;;11.01;75.21;98047.48;112745;1193;60197;-82
2021/10/21 00:53:29;;;;;;;21.90;17.10;;;;;;;10.90;75.30;98042.89;112608;1192;60259;-83
2021/10/21 00:55:56;;;;;;;22.30;17.10;;;;;;;10.81;75.46;98039.23;112728;1177;64829;-82
2021/10/21 00:58:23;;;;;;;23.20;16.50;;;;;;;10.69;75.63;98039.52;112576;1193;60253;-83
2021/10/21 01:00:50;;;;;;;26.50;17.20;;;;;;;10.60;75.67;98042.58;112757;1192;63904;-82
2021/10/21 01:03:16;;;;;;;24.90;17.90;;;;;;;10.53;75.95;98042.23;112696;1192;60233;-84
2021/10/21 01:05:43;;;;;;;23.00;18.70;;;;;;;10.51;76.22;98031.14;112662;1193;60153;-84
2021/10/21 01:08:12;;;;;;;21.70;18.10;;;;;;;10.55;76.49;98031.89;112801;1191;64489;-82
2021/10/21 01:10:39;;;;;;;26.40;20.00;;;;;;;10.52;76.56;98026.27;112767;1191;60133;-83
2021/10/21 01:13:06;;;;;;;25.10;20.40;;;;;;;10.45;76.69;98026.15;112716;1193;63747;-84
2021/10/21 01:15:32;;;;;;;25.50;19.50;;;;;;;10.39;76.74;98025.27;112592;1193;60143;-82
2021/10/21 01:17:59;;;;;;;25.60;20.70;;;;;;;10.31;76.85;98023.88;112684;1192;60105;-82
2021/10/21 01:20:27;;;;;;;25.40;21.50;;;;;;;10.24;77.00;98015.98;112735;1193;66191;-83
2021/10/21 01:22:54;;;;;;;24.90;19.60;;;;;;;10.16;77.21;98013.21;112596;1192;60191;-83
2021/10/21 01:25:21;;;;;;;31.60;20.90;;;;;;;10.08;77.39;98007.61;112729;1192;62788;-83
2021/10/21 01:27:50;;;;;;;26.60;21.70;;;;;;;10.06;77.72;98008.49;112581;1193;60246;-83
2021/10/21 01:30:19;;;;;;;30.70;22.70;;;;;;;10.03;77.94;98001.67;112814;1193;60332;-83
2021/10/21 01:32:46;;;;;;;31.20;23.60;;;;;;;9.99;78.33;97993.98;112675;1192;64483;-82
2021/10/21 01:35:13;;;;;;;56.80;34.30;;;;;;;9.96;78.51;97984.15;112809;1191;60707;-82
2021/10/21 01:37:41;;;;;;;53.50;33.50;;;;;;;9.95;78.58;97975.17;112592;1193;63788;-83
2021/10/21 01:40:10;;;;;;;31.40;23.70;;;;;;;9.93;78.56;97970.35;112812;1193;60239;-82
2021/10/21 01:42:41;;;;;;;28.70;23.30;;;;;;;9.88;78.61;97966.51;112842;1193;60258;-83
2021/10/21 01:45:32;;;;;;;33.30;23.60;;;;;;;9.82;78.82;97966.64;112890;1191;63612;-83
2021/10/21 01:48:01;;;;;;;31.20;24.40;;;;;;;9.75;79.01;97958.48;112825;1191;60194;-82
2021/10/21 01:50:30;;;;;;;31.40;25.00;;;;;;;9.68;79.05;97960.11;112898;1192;62963;-84
2021/10/21 01:52:57;;;;;;;29.10;24.40;;;;;;;9.62;79.22;97954.20;112852;1191;60140;-83
2021/10/21 01:55:25;;;;;;;31.80;26.30;;;;;;;9.55;79.45;97955.35;112866;1192;60166;-83
2021/10/21 01:57:55;;;;;;;34.60;25.00;;;;;;;9.51;79.63;97952.42;112908;1193;66538;-83
2021/10/21 02:00:30;;;;;;;32.20;25.80;;;;;;;9.42;79.73;97955.23;112864;1192;60239;-82
2021/10/21 02:02:57;;;;;;;38.10;32.50;;;;;;;9.39;79.92;97959.77;112885;1192;63978;-82
2021/10/21 02:05:23;;;;;;;42.00;36.60;;;;;;;9.38;80.22;97955.61;112844;1192;60232;-82
2021/10/21 02:07:50;;;;;;;38.70;31.60;;;;;;;9.36;80.40;97957.65;112837;1192;60102;-82
2021/10/21 02:10:19;;;;;;;46.00;37.60;;;;;;;9.35;80.40;97950.49;112665;1193;65873;-83
2021/10/21 02:12:47;;;;;;;38.10;32.80;;;;;;;9.33;80.46;97946.58;112867;1192;60136;-82
2021/10/21 02:15:15;;;;;;;33.80;28.40;;;;;;;9.32;80.55;97941.19;112924;1192;64638;-84
2021/10/21 02:17:42;;;;;;;31.30;26.70;;;;;;;9.31;80.69;97930.82;112906;1193;60155;-82
2021/10/21 02:20:10;;;;;;;34.70;26.10;;;;;;;9.32;80.86;97928.45;112970;1192;60185;-82
2021/10/21 02:22:37;;;;;;;30.60;26.80;;;;;;;9.29;80.93;97927.92;112933;1193;64862;-83
2021/10/21 02:25:06;;;;;;;34.40;30.30;;;;;;;9.27;80.82;97922.64;112858;1192;60121;-84
2021/10/21 02:27:32;;;;;;;38.40;31.60;;;;;;;9.26;81.06;97918.78;112948;1192;65045;-84
2021/10/21 02:29:59;;;;;;;38.60;34.20;;;;;;;9.29;81.26;97916.23;112665;1193;60326;-84
2021/10/21 02:32:25;;;;;;;42.40;35.60;;;;;;;9.27;81.30;97905.80;112993;1193;60219;-84
2021/10/21 02:34:52;;;;;;;42.30;33.80;;;;;;;9.23;81.44;97901.45;112900;1193;63630;-84
2021/10/21 02:37:20;;;;;;;42.30;33.60;;;;;;;9.18;81.41;97898.34;112825;1192;61085;-84
2021/10/21 02:39:46;;;;;;;38.60;33.00;;;;;;;9.11;81.56;97889.64;112660;1193;63688;-84
2021/10/21 02:42:12;;;;;;;36.30;31.10;;;;;;;9.08;81.66;97890.79;112738;1192;60124;-82
2021/10/21 02:44:39;;;;;;;35.60;31.20;;;;;;;9.07;81.75;97889.48;112648;1193;60318;-82
2021/10/21 02:47:06;;;;;;;37.20;32.80;;;;;;;9.06;81.97;97888.10;112740;1192;63910;-82
2021/10/21 02:49:32;;;;;;;39.70;35.10;;;;;;;9.02;82.07;97882.02;112616;1191;60156;-83
2021/10/21 02:51:59;;;;;;;40.90;36.10;;;;;;;8.98;82.33;97882.17;112595;1193;60195;-83
2021/10/21 02:54:26;;;;;;;42.20;37.60;;;;;;;8.95;82.46;97877.45;112651;1192;60152;-84
2021/10/21 02:56:53;;;;;;;45.70;37.10;;;;;;;8.94;82.74;97873.40;112558;1193;60204;-84
2021/10/21 02:59:19;;;;;;;37.20;33.10;;;;;;;8.94;82.88;97871.14;112607;1193;64990;-84
2021/10/21 03:01:46;;;;;;;38.90;33.30;;;;;;;8.91;82.99;97870.64;112592;1193;60220;-84
2021/10/21 03:04:13;;;;;;;37.20;31.80;;;;;;;8.86;83.12;97865.39;112684;1191;60156;-84
2021/10/21 03:06:40;;;;;;;37.10;31.70;;;;;;;8.84;83.21;97869.77;112680;1193;60267;-84
2021/10/21 03:09:07;;;;;;;38.60;34.40;;;;;;;8.84;83.31;97871.20;112731;1192;60124;-84
2021/10/21 03:11:33;;;;;;;36.80;32.80;;;;;;;8.85;83.30;97868.19;112549;1193;64960;-84
2021/10/21 03:14:00;;;;;;;34.80;29.10;;;;;;;8.82;83.29;97861.98;112693;1193;60226;-84
2021/10/21 03:16:30;;;;;;;35.20;30.00;;;;;;;8.81;83.34;97861.00;112556;1193;60240;-83
2021/10/21 03:18:56;;;;;;;34.70;30.40;;;;;;;8.78;83.47;97862.29;112632;1192;60250;-83
2021/10/21 03:21:23;;;;;;;35.50;31.70;;;;;;;8.75;83.57;97862.01;112625;1192;60623;-83
2021/10/21 03:23:50;;;;;;;39.10;32.50;;;;;;;8.71;83.73;97862.09;112737;1193;60160;-83
2021/10/21 03:26:17;;;;;;;35.00;29.90;;;;;;;8.69;83.99;97860.35;112581;1193;60276;-84
2021/10/21 03:28:43;;;;;;;40.20;33.00;;;;;;;8.69;84.06;97855.52;112634;1193;64478;-81
2021/10/21 03:31:11;;;;;;;31.80;28.40;;;;;;;8.73;84.20;97851.19;112638;1193;60262;-84
2021/10/21 03:33:37;;;;;;;40.30;30.60;;;;;;;8.77;84.33;97848.05;112718;1193;60336;-84
2021/10/21 03:36:04;;;;;;;40.00;34.00;;;;;;;8.81;84.28;97843.27;112583;1192;60248;-85
2021/10/21 03:38:30;;;;;;;41.30;34.90;;;;;;;8.84;84.22;97835.81;112806;1192;60787;-84
2021/10/21 03:40:57;;;;;;;36.90;31.70;;;;;;;8.82;84.21;97833.11;112775;1193;60269;-83
2021/10/21 03:43:23;;;;;;;39.70;33.40;;;;;;;8.82;84.10;97831.76;112871;1192;60256;-83
2021/10/21 03:45:50;;;;;;;37.70;33.00;;;;;;;8.72;83.84;97824.00;112896;1193;60252;-84
2021/10/21 03:48:17;;;;;;;36.80;32.70;;;;;;;8.62;83.81;97817.15;112866;1191;65255;-84
2021/10/21 03:50:44;;;;;;;37.30;32.20;;;;;;;8.54;83.95;97813.52;112873;1192;60121;-84
2021/10/21 03:53:12;;;;;;;35.70;31.90;;;;;;;8.51;84.04;97816.71;112858;1192;62783;-83
2021/10/21 03:55:43;;;;;;;36.50;32.10;;;;;;;8.51;84.21;97804.89;112898;1193;60242;-84
2021/10/21 03:58:09;;;;;;;38.20;31.50;;;;;;;8.54;84.38;97805.55;112669;1192;60300;-83
2021/10/21 04:00:36;;;;;;;35.10;30.70;;;;;;;8.56;84.41;97804.64;112849;1192;64818;-84
2021/10/21 04:03:03;;;;;;;40.20;31.50;;;;;;;8.59;84.39;97796.85;112846;1191;61120;-84
2021/10/21 04:05:30;;;;;;;34.50;30.70;;;;;;;8.57;84.44;97789.73;112862;1191;63861;-84
2021/10/21 04:07:56;;;;;;;37.50;31.10;;;;;;;8.57;84.49;97793.63;112866;1192;60980;-84
2021/10/21 04:10:23;;;;;;;34.60;30.70;;;;;;;8.55;84.49;97795.54;112863;1192;60220;-84
2021/10/21 04:12:50;;;;;;;35.80;30.30;;;;;;;8.55;84.60;97792.89;112849;1191;64887;-84
2021/10/21 04:15:18;;;;;;;38.00;32.30;;;;;;;8.61;84.65;97786.81;112817;1193;60887;-84
2021/10/21 04:17:44;;;;;;;34.60;30.30;;;;;;;8.61;84.63;97779.37;112860;1191;63755;-83
2021/10/21 04:20:11;;;;;;;36.70;32.30;;;;;;;8.53;84.58;97772.85;112684;1192;60211;-83
2021/10/21 04:22:37;;;;;;;39.30;31.90;;;;;;;8.45;84.58;97763.24;112849;1191;60232;-83
2021/10/21 04:25:04;;;;;;;37.30;31.50;;;;;;;8.38;84.67;97755.27;112860;1193;65189;-85
2021/10/21 04:27:31;;;;;;;35.50;30.20;;;;;;;8.32;84.67;97750.58;112825;1192;60246;-83
2021/10/21 04:29:57;;;;;;;35.90;31.10;;;;;;;8.24;84.64;97746.23;112853;1193;62406;-83
2021/10/21 04:32:24;;;;;;;38.00;33.50;;;;;;;8.19;84.77;97745.61;112836;1192;60166;-83
2021/10/21 04:34:50;;;;;;;40.90;33.70;;;;;;;8.16;85.10;97737.69;112665;1192;60265;-85
2021/10/21 04:37:17;;;;;;;45.60;35.30;;;;;;;8.12;85.23;97733.35;112803;1193;60130;-83
2021/10/21 04:39:44;;;;;;;38.90;32.80;;;;;;;8.09;85.30;97735.34;112794;1192;61016;-84
2021/10/21 04:42:10;;;;;;;37.90;31.80;;;;;;;8.05;85.38;97728.58;112813;1192;60140;-85
2021/10/21 04:44:37;;;;;;;36.90;31.10;;;;;;;8.03;85.38;97726.96;112804;1192;60285;-84
2021/10/21 04:47:03;;;;;;;39.00;31.30;;;;;;;8.03;85.56;97722.25;112885;1193;60255;-82
2021/10/21 04:49:30;;;;;;;34.60;30.00;;;;;;;8.04;85.64;97713.64;112846;1192;65211;-83
2021/10/21 04:51:56;;;;;;;40.00;30.10;;;;;;;8.07;85.79;97702.13;112833;1192;60146;-83
2021/10/21 04:54:23;;;;;;;33.80;30.10;;;;;;;8.11;85.81;97695.98;112869;1193;65022;-84
2021/10/21 04:56:49;;;;;;;39.50;30.50;;;;;;;8.11;85.75;97689.76;112838;1192;60303;-84
2021/10/21 04:59:16;;;;;;;42.20;32.50;;;;;;;8.10;85.70;97683.48;112849;1192;60147;-83
2021/10/21 05:01:42;;;;;;;38.80;33.10;;;;;;;8.08;85.82;97679.02;112632;1192;60259;-84
2021/10/21 05:04:09;;;;;;;40.80;34.00;;;;;;;8.04;85.79;97673.14;112880;1193;60165;-83
2021/10/21 05:06:36;;;;;;;42.40;32.60;;;;;;;7.99;85.86;97671.55;112827;1192;63722;-83
2021/10/21 05:09:03;;;;;;;41.70;33.70;;;;;;;7.97;86.05;97671.79;112840;1178;60137;-83
2021/10/21 05:11:29;;;;;;;39.60;31.30;;;;;;;7.95;86.20;97668.55;112844;1193;60150;-83
2021/10/21 05:13:56;;;;;;;44.50;32.50;;;;;;;7.92;86.34;97662.80;112905;1191;64949;-83
2021/10/21 05:16:23;;;;;;;52.10;36.90;;;;;;;7.88;86.69;97662.51;112885;1192;60166;-83
2021/10/21 05:18:49;;;;;;;46.00;35.50;;;;;;;7.87;86.83;97661.73;112856;1192;62900;-83
2021/10/21 05:21:16;;;;;;;44.00;34.80;;;;;;;7.89;86.99;97658.55;112806;1193;60281;-83
2021/10/21 05:23:42;;;;;;;46.80;37.70;;;;;;;7.90;87.16;97649.43;112840;1193;60169;-83
2021/10/21 05:26:09;;;;;;;46.00;37.80;;;;;;;7.92;87.20;97643.11;112834;1192;64809;-83
2021/10/21 05:28:35;;;;;;;44.90;38.80;;;;;;;7.96;87.22;97636.65;112828;1192;60230;-83
2021/10/21 05:31:02;;;;;;;41.20;35.20;;;;;;;8.00;87.20;97634.05;112844;1191;65428;-83
2021/10/21 05:33:34;;;;;;;44.30;33.90;;;;;;;8.04;87.14;97620.29;112786;1192;60249;-83
2021/10/21 05:36:03;;;;;;;41.70;33.40;;;;;;;8.09;87.19;97609.45;112857;1191;60127;-83
2021/10/21 05:38:31;;;;;;;41.70;34.30;;;;;;;8.15;87.03;97598.91;112916;1192;65280;-83
2021/10/21 05:40:57;;;;;;;43.60;33.90;;;;;;;8.20;86.90;97594.92;112926;1192;60236;-84
2021/10/21 05:43:24;;;;;;;36.80;30.40;;;;;;;8.25;86.90;97584.77;112660;1193;62397;-84
2021/10/21 05:45:51;;;;;;;31.50;25.70;;;;;;;8.35;87.05;97578.33;112813;1192;60149;-84
2021/10/21 05:48:18;;;;;;;26.30;22.10;;;;;;;8.50;87.16;97577.01;112914;1193;60192;-83
2021/10/21 05:50:44;;;;;;;21.90;19.40;;;;;;;8.67;87.17;97570.33;112867;1193;65304;-83
2021/10/21 05:53:11;;;;;;;21.90;17.50;;;;;;;8.84;87.19;97580.61;112838;1193;60204;-83
2021/10/21 05:55:37;;;;;;;19.90;16.70;;;;;;;8.99;87.06;97580.42;112800;1191;65187;-84
2021/10/21 05:58:04;;;;;;;16.60;14.90;;;;;;;9.13;86.90;97571.42;112885;1193;60578;-84
2021/10/21 06:00:31;;;;;;;18.90;14.30;;;;;;;9.27;86.79;97579.52;112841;1192;60219;-83
2021/10/21 06:02:57;;;;;;;15.80;14.20;;;;;;;9.41;86.75;97573.83;112870;1193;65113;-83
2021/10/21 06:05:24;;;;;;;14.80;13.30;;;;;;;9.55;86.51;97568.81;112866;1192;60172;-83
2021/10/21 06:07:50;;;;;;;17.40;15.00;;;;;;;9.68;86.36;97562.86;112913;1192;64876;-83
2021/10/21 06:10:17;;;;;;;18.70;14.80;;;;;;;9.83;86.19;97562.11;112873;1193;60960;-84
2021/10/21 06:12:48;;;;;;;27.10;22.90;;;;;;;9.96;86.00;97560.80;112861;1192;60245;-83
2021/10/21 06:15:17;;;;;;;27.90;22.80;;;;;;;10.02;85.71;97557.63;112921;1192;63834;-83
2021/10/21 06:17:44;;;;;;;31.70;22.50;;;;;;;10.07;85.60;97563.01;112923;1193;60197;-83
2021/10/21 06:20:15;;;;;;;23.10;17.60;;;;;;;10.16;85.44;97557.42;112871;1191;63663;-83
2021/10/21 06:22:43;;;;;;;31.80;21.70;;;;;;;10.28;85.33;97550.58;112842;1193;60974;-83
2021/10/21 06:25:12;;;;;;;25.10;18.80;;;;;;;10.39;85.28;97541.80;112886;1192;60818;-83
2021/10/21 06:27:39;;;;;;;18.80;16.30;;;;;;;10.49;85.05;97534.77;112891;1192;66236;-84
2021/10/21 06:30:07;;;;;;;23.40;16.20;;;;;;;10.64;85.05;97525.61;112854;1193;60271;-83
2021/10/21 06:32:33;;;;;;;16.90;15.20;;;;;;;10.81;84.72;97515.77;112781;1184;62469;-84
2021/10/21 06:35:00;;;;;;;15.90;14.40;;;;;;;11.00;84.63;97507.27;112898;1193;60229;-84
2021/10/21 06:37:28;;;;;;;15.80;14.10;;;;;;;11.15;84.38;97501.27;112879;1193;60716;-83
2021/10/21 06:39:55;;;;;;;14.30;12.80;;;;;;;11.29;84.33;97493.69;112825;1193;64295;-83
2021/10/21 06:42:23;;;;;;;14.70;13.30;;;;;;;11.43;84.06;97482.79;112874;1193;60228;-83
2021/10/21 06:44:51;;;;;;;14.00;12.00;;;;;;;11.57;83.82;97469.52;112868;1191;62649;-84
2021/10/21 06:47:18;;;;;;;14.20;12.50;;;;;;;11.74;83.50;97463.29;112618;1193;60323;-82
2021/10/21 06:49:44;;;;;;;12.30;11.20;;;;;;;11.95;83.08;97463.32;112899;1191;60184;-85
2021/10/21 06:52:11;;;;;;;12.90;11.70;;;;;;;12.15;82.65;97473.46;112850;1192;60142;-84
2021/10/21 06:54:37;;;;;;;16.10;12.40;;;;;;;12.33;82.29;97487.33;112871;1192;60236;-84
2021/10/21 06:57:04;;;;;;;14.30;12.80;;;;;;;12.51;82.02;97509.77;112850;1192;60262;-84
2021/10/21 06:59:30;;;;;;;17.80;13.00;;;;;;;12.67;81.62;97513.86;112875;1193;60166;-84
2021/10/21 07:01:57;;;;;;;18.50;13.80;;;;;;;12.82;81.01;97520.92;112881;1192;60172;-85
2021/10/21 07:04:25;;;;;;;18.90;13.20;;;;;;;13.00;80.78;97519.88;112901;1193;60245;-83
2021/10/21 07:06:51;;;;;;;18.40;11.80;;;;;;;13.16;80.51;97518.94;112912;1192;60159;-83
2021/10/21 07:09:18;;;;;;;22.20;12.90;;;;;;;13.30;80.21;97526.86;112812;1191;65027;-84
2021/10/21 07:11:44;;;;;;;17.00;12.90;;;;;;;13.44;79.87;97530.43;112887;1192;60166;-84
2021/10/21 07:14:11;;;;;;;15.40;12.10;;;;;;;13.57;79.64;97531.77;112885;1192;60307;-82
2021/10/21 07:16:37;;;;;;;14.30;11.60;;;;;;;13.69;79.10;97531.08;112901;1193;60239;-82
2021/10/21 07:19:05;;;;;;;18.10;12.70;;;;;;;13.77;78.40;97531.65;112948;1193;60165;-82
2021/10/21 07:21:32;;;;;;;18.80;13.00;;;;;;;13.87;78.12;97529.02;112821;1193;63927;-82
2021/10/21 07:23:58;;;;;;;50.90;21.10;;;;;;;13.97;78.21;97532.48;112855;1193;60201;-85
2021/10/21 07:26:25;;;;;;;34.00;24.00;;;;;;;14.04;78.31;97533.86;112924;1194;60128;-84
2021/10/21 07:28:51;;;;;;;34.00;26.10;;;;;;;14.07;78.22;97526.42;112926;1177;65934;-85
2021/10/21 07:31:19;;;;;;;37.80;28.10;;;;;;;14.08;78.08;97515.61;112832;1192;60227;-82
2021/10/21 07:33:45;;;;;;;35.80;26.30;;;;;;;14.11;77.87;97487.84;112912;1193;63793;-82
2021/10/21 07:36:13;;;;;;;37.90;24.10;;;;;;;14.11;77.85;97464.17;112875;1192;60243;-82
2021/10/21 07:38:40;;;;;;;30.90;22.40;;;;;;;14.16;77.83;97461.21;112820;1192;60348;-82
2021/10/21 07:41:07;;;;;;;22.50;17.90;;;;;;;14.23;77.92;97461.46;112994;1192;65291;-82
2021/10/21 07:44:12;;;;;;;23.00;17.30;;;;;;;14.31;77.01;97478.70;113708;1191;60184;-92
2021/10/21 07:46:38;;;;;;;17.60;15.00;;;;;;;14.38;76.41;97493.51;112746;1193;63693;-89
2021/10/21 07:49:05;;;;;;;26.80;21.80;;;;;;;14.45;76.25;97500.63;112686;1193;61013;-84
2021/10/21 07:51:34;;;;;;;40.70;26.30;;;;;;;14.54;76.45;97498.61;112896;1192;61648;-88
2021/10/21 07:54:01;;;;;;;92.50;32.40;;;;;;;14.65;76.57;97486.21;112867;1192;66035;-90
2021/10/21 07:56:27;;;;;;;40.40;24.60;;;;;;;14.76;76.39;97478.59;112786;1193;61020;-89
2021/10/21 07:58:54;;;;;;;33.90;20.70;;;;;;;14.84;75.82;97483.19;112827;1193;63761;-90
2021/10/21 08:01:20;;;;;;;22.60;17.50;;;;;;;14.94;74.98;97491.41;112717;1192;61039;-83
2021/10/21 08:03:47;;;;;;;18.90;15.40;;;;;;;15.04;74.13;97494.63;112741;1193;61722;-83
2021/10/21 08:08:59;;;;;;;16.90;14.90;;;;;;;15.32;73.32;97507.49;114573;1190;60921;-80
2021/10/21 08:11:26;;;;;;;16.50;14.10;;;;;;;15.46;72.52;97517.74;112781;1192;63079;-82
2021/10/21 08:13:52;;;;;;;18.50;15.30;;;;;;;15.59;71.36;97524.55;112860;1191;61058;-79
2021/10/21 08:16:19;;;;;;;17.20;15.50;;;;;;;15.72;71.13;97516.55;112824;1192;61052;-80
2021/10/21 08:18:45;;;;;;;17.00;15.20;;;;;;;15.82;71.31;97503.23;112846;1193;60982;-81
2021/10/21 08:21:12;;;;;;;17.60;15.70;;;;;;;15.94;70.82;97504.98;112847;1193;60995;-80
2021/10/21 08:23:38;;;;;;;18.70;14.90;;;;;;;16.03;70.30;97515.70;112850;1192;61055;-79
2021/10/21 08:26:06;;;;;;;20.40;14.10;;;;;;;16.16;70.43;97526.45;112711;1193;61000;-81
2021/10/21 08:28:32;;;;;;;41.70;16.90;;;;;;;16.33;70.05;97530.95;112860;1193;61079;-81
2021/10/21 08:31:00;;;;;;;21.80;13.60;;;;;;;16.52;69.88;97535.98;112776;1192;61071;-80
2021/10/21 08:33:26;;;;;;;14.80;13.20;;;;;;;16.71;69.39;97543.30;112772;1192;61059;-80
2021/10/21 08:35:53;;;;;;;16.70;15.00;;;;;;;16.79;68.81;97559.05;112864;1193;65164;-81
2021/10/21 08:38:19;;;;;;;18.10;15.00;;;;;;;16.84;68.93;97572.23;112662;1192;61049;-80
2021/10/21 08:40:46;;;;;;;17.70;15.90;;;;;;;16.92;68.95;97581.64;112834;1193;61017;-80
2021/10/21 08:43:12;;;;;;;49.90;20.20;;;;;;;17.01;68.69;97591.12;112813;1193;65981;-81
2021/10/21 08:45:39;;;;;;;40.30;18.70;;;;;;;17.11;68.87;97608.85;112759;1192;61037;-83
2021/10/21 08:48:07;;;;;;;16.70;14.90;;;;;;;17.16;68.67;97618.14;112877;1192;63703;-82
2021/10/21 08:50:38;;;;;;;18.50;13.90;;;;;;;17.17;68.52;97626.61;112887;1192;61052;-80
2021/10/21 08:53:06;;;;;;;27.20;13.90;;;;;;;17.22;68.24;97629.83;112903;1193;61039;-82
2021/10/21 08:55:34;;;;;;;15.40;12.30;;;;;;;17.22;67.82;97629.41;112828;1193;64344;-81
2021/10/21 08:58:03;;;;;;;15.40;11.90;;;;;;;17.20;67.46;97636.15;112909;1192;60977;-81
2021/10/21 09:00:31;;;;;;;15.80;11.40;;;;;;;17.08;67.00;97636.42;112910;1193;65023;-80
2021/10/21 09:03:02;;;;;;;15.60;13.00;;;;;;;16.90;66.48;97631.85;112826;1192;61088;-82
2021/10/21 09:05:32;;;;;;;13.50;12.30;;;;;;;16.74;66.34;97629.25;112795;1193;60998;-83
2021/10/21 09:08:03;;;;;;;;;;;;;;;16.64;65.83;97638.16;112849;1193;64779;-82
2021/10/21 09:10:30;;;;;;;14.50;12.60;;;;;;;16.64;65.86;97638.89;112681;1193;61043;-82
2021/10/21 09:12:59;;;;;;;14.00;12.60;;;;;;;16.70;66.13;97630.50;112797;1191;62333;-80
2021/10/21 09:15:27;;;;;;;14.40;12.90;;;;;;;16.79;66.25;97607.79;112880;1193;61052;-81
2021/10/21 09:17:54;;;;;;;13.90;12.60;;;;;;;16.93;66.24;97590.50;112886;1193;61104;-80
2021/10/21 09:20:27;;;;;;;13.60;12.40;;;;;;;16.98;66.20;97578.39;112805;1192;67147;-81
2021/10/21 09:23:01;;;;;;;12.40;11.30;;;;;;;16.98;66.33;97612.34;112883;1192;61020;-81
2021/10/21 09:25:30;;;;;;;13.60;12.00;;;;;;;17.03;66.21;97614.59;112877;1193;62481;-80
2021/10/21 09:27:58;;;;;;;14.30;12.10;;;;;;;17.09;65.55;97604.76;112825;1193;61090;-81
2021/10/21 09:30:33;;;;;;;12.60;10.70;;;;;;;17.10;65.77;97613.27;112841;1193;60955;-81
2021/10/21 09:33:07;;;;;;;13.00;11.80;;;;;;;17.11;65.48;97623.29;112885;1177;65777;-81
2021/10/21 09:35:37;;;;;;;12.50;10.80;;;;;;;17.16;65.05;97630.69;112880;1193;61023;-81
2021/10/21 09:38:05;;;;;;;13.00;11.50;;;;;;;17.21;65.07;97637.31;112822;1192;64295;-81
2021/10/21 09:40:37;;;;;;;12.40;10.70;;;;;;;17.31;65.14;97636.81;112819;1193;60956;-81
2021/10/21 09:43:05;;;;;;;12.20;10.70;;;;;;;17.44;64.96;97640.09;112768;1192;61078;-81
2021/10/21 09:45:36;;;;;;;12.40;11.30;;;;;;;17.58;64.57;97642.45;112908;1193;66935;-80
2021/10/21 09:48:06;;;;;;;11.70;10.70;;;;;;;17.64;64.22;97650.77;112907;1192;62751;-81
2021/10/21 09:50:34;;;;;;;;;;;;;;;17.62;63.60;97646.63;112851;1192;64760;-81
2021/10/21 09:53:20;;;;;;;10.80;9.70;;;;;;;17.58;63.82;97648.98;112789;1184;61024;-80
2021/10/21 09:55:48;;;;;;;10.10;9.10;;;;;;;17.58;64.01;97657.20;112849;1193;61052;-80
2021/10/21 09:58:16;;;;;;;12.00;10.50;;;;;;;17.59;64.29;97671.27;112841;1192;64709;-82
2021/10/21 10:00:44;;;;;;;10.30;9.30;;;;;;;17.54;64.29;97676.69;112872;1193;60944;-80
2021/10/21 10:03:21;;;;;;;10.80;9.70;;;;;;;17.43;64.47;97680.48;112812;1194;63913;-79
2021/10/21 10:05:50;;;;;;;10.50;9.50;;;;;;;17.29;64.69;97683.19;112796;1191;61119;-80
2021/10/21 10:08:19;;;;;;;10.50;9.60;;;;;;;17.17;64.96;97679.31;112866;1192;61097;-82
2021/10/21 10:10:49;;;;;;;9.30;8.30;;;;;;;17.09;64.77;97685.52;112853;1193;65833;-80
2021/10/21 10:13:17;;;;;;;9.40;8.40;;;;;;;17.01;64.50;97679.06;112804;1193;61404;-80
2021/10/21 10:15:46;;;;;;;9.30;8.50;;;;;;;16.95;64.17;97666.31;112889;1192;64034;-80
2021/10/21 10:18:18;;;;;;;8.80;8.00;;;;;;;16.88;64.04;97688.36;112885;1193;61045;-79
2021/10/21 10:21:00;;;;;;;9.00;8.20;;;;;;;16.83;64.75;97725.27;112860;1192;61007;-80
2021/10/21 10:23:28;;;;;;;8.40;7.60;;;;;;;16.84;64.99;97718.69;112785;1193;67257;-81
2021/10/21 10:25:54;;;;;;;8.70;7.90;;;;;;;16.90;64.76;97726.95;112711;1193;61454;-80
2021/10/21 10:28:21;;;;;;;9.00;8.20;;;;;;;16.97;64.54;97725.98;112587;1193;62631;-78
2021/10/21 10:30:51;;;;;;;7.60;6.80;;;;;;;17.06;64.76;97723.55;112717;1193;61052;-81
2021/10/21 10:33:33;;;;;;;8.10;7.30;;;;;;;17.12;64.58;97711.42;112895;1192;60979;-80
2021/10/21 10:36:21;;;;;;;7.60;6.90;;;;;;;17.14;64.51;97718.10;112862;1184;64796;-80
2021/10/21 10:38:49;;;;;;;9.50;8.50;;;;;;;17.16;64.63;97718.86;112777;1193;60950;-80
2021/10/21 10:41:44;;;;;;;8.80;7.90;;;;;;;17.20;64.82;97722.67;112842;1192;64031;-80
2021/10/21 10:44:11;;;;;;;8.50;7.70;;;;;;;17.27;65.02;97726.85;112842;1193;61057;-81
2021/10/21 10:46:53;;;;;;;8.00;7.30;;;;;;;17.29;65.03;97729.09;112866;1190;61055;-82
2021/10/21 10:49:39;;;;;;;10.70;7.80;;;;;;;17.27;64.60;97720.09;112713;1193;66747;-81
2021/10/21 10:52:13;;;;;;;8.70;7.00;;;;;;;17.19;64.48;97708.66;112829;1192;61043;-82
2021/10/21 10:54:43;;;;;;;10.70;7.50;;;;;;;17.00;64.57;97697.80;112852;1192;64684;-81
2021/10/21 10:57:10;;;;;;;11.90;7.30;;;;;;;16.81;64.83;97688.29;112800;1192;61010;-80
2021/10/21 10:59:37;;;;;;;8.10;6.70;;;;;;;16.67;64.93;97688.79;112816;1191;61055;-80
2021/10/21 11:02:33;;;;;;;11.60;6.00;;;;;;;16.54;65.21;97678.44;112861;1193;65880;-81
2021/10/21 11:05:03;;;;;;;7.00;6.40;;;;;;;16.43;65.33;97672.02;112770;1193;61061;-81
2021/10/21 11:07:49;;;;;;;7.20;6.50;;;;;;;16.35;65.75;97660.10;112839;1193;64419;-81
2021/10/21 11:10:18;;;;;;;6.90;6.20;;;;;;;16.28;66.24;97649.64;112906;1193;60976;-81
2021/10/21 11:12:46;;;;;;;7.10;6.50;;;;;;;16.21;66.31;97647.14;112853;1192;61023;-81
2021/10/21 11:15:28;;;;;;;6.70;6.10;;;;;;;16.16;66.38;97643.27;112893;1192;66009;-79
2021/10/21 11:17:57;;;;;;;6.60;6.00;;;;;;;16.13;66.69;97632.50;112902;1192;60859;-80
2021/10/21 11:20:29;;;;;;;12.30;8.00;;;;;;;16.11;66.61;97624.64;112843;1192;63803;-81
2021/10/21 11:22:57;;;;;;;14.50;9.30;;;;;;;16.10;66.70;97612.42;112782;1193;60994;-82